Accueil
METAR-TAF:

METAR-TAF

Aéroports :

Aéroport international de Harbin Taiping

Harbin, Chine

latitude: 45-45N, longitude: 126-46E, altitude: 143 m

Observation

Le bulletin a été fait il y a 15 minutes, à 21:00 UTC
Vent 4 kt de sud/sud-est
Température 19°C
Humidité 73%
Pression 1007 hPa
Visibilité 10 km ou plus
pas de nuages en-dessous de 1500 mètres et pas de cumulonimbus.

METAR: ZYHB 172100Z 16002MPS CAVOK 19/14 Q1007 NOSIG

Heure: 05:15 (21:15 UTC)

Prévision

Le bulletin a été fait il y a 8 heures et 11 minutes, à 13:04 UTC
Prévision valable du 17 à 18 UTC au 18 à 18 UTC
Vent 8 kt de sud/sud-ouest
Visibilité: 6000 m
Nuages épars à une hauteur de 3000 ft

TAF: ZYHB 171304Z 1718/1818 21004MPS 6000 SCT030 TX27/1806Z TN17/1721Z

Observations et prévisions météorologiques de plus de 4000 aéroports (messages METAR et TAF).

Les stations disponibles sont représentées par des disques jaunes et rouges sur la carte.

Passer la souris dessus pour voir le nom de la station.

Cliquer dessus pour voir les observations et prévisions météorologiques.

Pour changer de carte: cliquez sur les boutons verts avec une croix noire pour zoomer, sur le bouton vert avec un tiret pour effectuer un zoom arrière, ou sur les flèches vertes pour les cartes adjacentes.


METAR-TAF: